createdAt,value
2018-09-23T00:01:23.765Z,9.23
2018-09-23T00:03:51.547Z,12.97
2018-09-23T00:06:19.334Z,15.97
2018-09-23T00:08:47.135Z,16.13
2018-09-23T00:11:14.954Z,16.53
2018-09-23T00:13:42.738Z,13.60
2018-09-23T00:16:10.713Z,13.73
2018-09-23T00:18:38.483Z,9.80
2018-09-23T00:21:06.506Z,8.20
2018-09-23T00:23:34.320Z,6.67
2018-09-23T00:26:02.509Z,5.87
2018-09-23T00:28:30.335Z,5.93
2018-09-23T00:30:58.116Z,7.10
2018-09-23T00:33:25.921Z,15.57
2018-09-23T00:35:53.694Z,27.40
2018-09-23T00:38:21.608Z,34.67
2018-09-23T00:40:49.459Z,26.90
2018-09-23T00:43:17.302Z,19.83
2018-09-23T00:45:45.098Z,18.30
2018-09-23T00:48:12.971Z,15.57
2018-09-23T00:50:40.770Z,17.63
2018-09-23T00:53:08.635Z,15.90
2018-09-23T00:55:36.441Z,15.60
2018-09-23T00:58:04.253Z,11.63
2018-09-23T01:00:32.164Z,13.33
2018-09-23T01:02:59.952Z,14.50
2018-09-23T01:05:27.796Z,13.57
2018-09-23T01:07:55.605Z,11.40
2018-09-23T01:10:23.391Z,14.27
2018-09-23T01:12:51.190Z,11.50
2018-09-23T01:15:18.974Z,14.00
2018-09-23T01:17:46.825Z,14.60
2018-09-23T01:20:14.609Z,11.20
2018-09-23T01:22:42.398Z,12.07
2018-09-23T01:25:10.196Z,9.43
2018-09-23T01:27:38.032Z,7.83
2018-09-23T01:30:05.879Z,7.90
2018-09-23T01:32:33.647Z,9.10
2018-09-23T01:35:01.429Z,7.27
2018-09-23T01:37:29.248Z,8.67
2018-09-23T01:39:57.131Z,9.33
2018-09-23T01:42:24.906Z,8.50
2018-09-23T01:44:52.688Z,8.13
2018-09-23T01:47:20.494Z,8.03
2018-09-23T01:49:48.271Z,9.23
2018-09-23T01:52:16.094Z,12.10
2018-09-23T01:54:43.883Z,10.10
2018-09-23T01:57:11.679Z,11.13
2018-09-23T01:59:39.484Z,7.83
2018-09-23T02:02:07.343Z,9.47
2018-09-23T02:04:35.102Z,9.80
2018-09-23T02:07:02.901Z,7.03
2018-09-23T02:09:30.690Z,7.33
2018-09-23T02:11:58.542Z,74.40
2018-09-23T02:14:26.466Z,8.90
2018-09-23T02:16:54.272Z,9.57
2018-09-23T02:19:22.083Z,9.13
2018-09-23T02:21:49.906Z,6.47
2018-09-23T02:24:17.835Z,10.23
2018-09-23T02:26:45.669Z,7.83
2018-09-23T02:29:14.249Z,10.23
2018-09-23T02:31:42.104Z,7.20
2018-09-23T02:34:09.903Z,10.23
2018-09-23T02:36:37.704Z,10.17
2018-09-23T02:39:06.750Z,7.70
2018-09-23T02:41:34.583Z,10.33
2018-09-23T02:44:02.383Z,8.37
2018-09-23T02:46:30.236Z,7.73
2018-09-23T02:48:58.004Z,7.90
2018-09-23T02:51:25.823Z,8.53
2018-09-23T02:53:53.671Z,9.80
2018-09-23T02:56:21.482Z,12.37
2018-09-23T02:58:49.296Z,14.67
2018-09-23T03:01:17.087Z,12.83
2018-09-23T03:03:44.874Z,9.73
2018-09-23T03:06:12.722Z,8.43
2018-09-23T03:08:40.652Z,12.93
2018-09-23T03:11:08.568Z,10.33
2018-09-23T03:13:36.345Z,9.10
2018-09-23T03:16:04.182Z,10.70
2018-09-23T03:18:31.949Z,14.13
2018-09-23T03:20:59.808Z,11.07
2018-09-23T03:23:27.604Z,8.97
2018-09-23T03:25:55.453Z,10.07
2018-09-23T03:28:23.267Z,9.43
2018-09-23T03:30:51.047Z,13.80
2018-09-23T03:33:18.842Z,12.90
2018-09-23T03:35:46.991Z,13.40
2018-09-23T03:38:14.848Z,12.73
2018-09-23T03:40:42.626Z,13.67
2018-09-23T03:43:10.431Z,12.93
2018-09-23T03:45:38.293Z,12.23
2018-09-23T03:48:06.162Z,17.83
2018-09-23T03:50:33.991Z,12.93
2018-09-23T03:53:01.803Z,10.53
2018-09-23T03:55:29.605Z,12.07
2018-09-23T03:57:57.454Z,12.37
2018-09-23T04:00:25.256Z,11.07
2018-09-23T04:02:53.060Z,12.97
2018-09-23T04:05:20.862Z,15.63
2018-09-23T04:07:48.656Z,15.70
2018-09-23T04:10:16.521Z,11.70
2018-09-23T04:12:44.320Z,14.93
2018-09-23T04:15:12.119Z,13.57
2018-09-23T04:17:39.915Z,12.73
2018-09-23T04:20:07.748Z,14.90
2018-09-23T04:22:40.652Z,14.70
2018-09-23T04:25:08.503Z,18.63
2018-09-23T04:27:36.326Z,19.47
2018-09-23T04:30:04.173Z,16.50
2018-09-23T04:32:32.043Z,17.77
2018-09-23T04:34:59.831Z,13.57
2018-09-23T04:37:27.622Z,13.10
2018-09-23T04:39:55.418Z,11.80
2018-09-23T04:42:23.222Z,13.40
2018-09-23T04:44:51.043Z,13.13
2018-09-23T04:47:18.862Z,11.93
2018-09-23T04:49:46.707Z,14.23
2018-09-23T04:52:14.579Z,22.80
2018-09-23T04:54:42.433Z,13.03
2018-09-23T04:57:10.235Z,14.77
2018-09-23T04:59:38.016Z,11.17
2018-09-23T05:02:05.883Z,14.93
2018-09-23T05:04:33.670Z,18.40
2018-09-23T05:07:01.591Z,20.37
2018-09-23T05:09:29.436Z,17.50
2018-09-23T05:11:57.242Z,15.70
2018-09-23T05:14:25.104Z,17.03
2018-09-23T05:16:52.984Z,18.73
2018-09-23T05:19:20.871Z,13.13
2018-09-23T05:21:48.768Z,17.20
2018-09-23T05:24:16.566Z,14.63
2018-09-23T05:26:44.347Z,15.40
2018-09-23T05:29:12.199Z,11.77
2018-09-23T05:31:39.970Z,19.13
2018-09-23T05:34:07.765Z,20.50
2018-09-23T05:36:35.578Z,13.83
2018-09-23T05:39:04.484Z,16.33
2018-09-23T05:41:32.274Z,14.20
2018-09-23T05:44:00.133Z,13.60
2018-09-23T05:46:27.963Z,18.73
2018-09-23T05:48:55.786Z,16.23
2018-09-23T05:51:23.590Z,14.83
2018-09-23T05:53:51.386Z,16.43
2018-09-23T05:56:19.187Z,18.23
2018-09-23T05:58:47.005Z,20.90
2018-09-23T06:01:14.890Z,20.80
2018-09-23T06:03:42.761Z,17.73
2018-09-23T06:06:13.070Z,15.07
2018-09-23T06:08:40.979Z,15.77
2018-09-23T06:11:08.779Z,16.43
2018-09-23T06:13:36.582Z,19.30
2018-09-23T06:16:04.398Z,22.57
2018-09-23T06:18:32.287Z,16.10
2018-09-23T06:21:00.070Z,20.27
2018-09-23T06:23:27.866Z,17.27
2018-09-23T06:25:55.755Z,15.17
2018-09-23T06:28:23.548Z,15.83
2018-09-23T06:30:51.461Z,13.07
2018-09-23T06:33:19.322Z,13.20
2018-09-23T06:35:47.103Z,11.87
2018-09-23T06:38:14.908Z,14.33
2018-09-23T06:40:42.691Z,14.17
2018-09-23T06:43:10.540Z,13.23
2018-09-23T06:45:39.228Z,11.37
2018-09-23T06:48:07.064Z,11.30
2018-09-23T06:50:35.474Z,12.30
2018-09-23T06:53:03.660Z,13.70
2018-09-23T06:55:31.536Z,13.00
2018-09-23T06:57:59.531Z,17.80
2018-09-23T07:00:27.461Z,15.57
2018-09-23T07:02:55.332Z,15.33
2018-09-23T07:05:23.268Z,16.50
2018-09-23T07:07:51.541Z,18.20
2018-09-23T07:10:19.324Z,14.87
2018-09-23T07:12:47.148Z,11.87
2018-09-23T07:15:14.931Z,10.37
2018-09-23T07:17:42.742Z,11.73
2018-09-23T07:20:10.518Z,10.70
2018-09-23T07:22:38.360Z,10.27
2018-09-23T07:25:06.196Z,12.13
2018-09-23T07:27:34.159Z,14.03
2018-09-23T07:30:01.990Z,12.63
2018-09-23T07:32:29.738Z,11.47
2018-09-23T07:34:57.537Z,9.83
2018-09-23T07:37:25.329Z,11.23
2018-09-23T07:39:53.125Z,11.33
2018-09-23T07:42:20.903Z,10.83
2018-09-23T07:44:48.788Z,12.73
2018-09-23T07:47:16.618Z,10.33
2018-09-23T07:49:44.515Z,10.57
2018-09-23T07:52:12.284Z,11.50
2018-09-23T07:54:40.068Z,14.77
2018-09-23T07:57:07.851Z,11.77
2018-09-23T07:59:35.613Z,14.27
2018-09-23T08:02:03.399Z,9.83
2018-09-23T08:04:31.187Z,10.63
2018-09-23T08:06:59.056Z,8.53
2018-09-23T08:09:26.836Z,10.77
2018-09-23T08:11:54.623Z,12.23
2018-09-23T08:14:22.826Z,10.63
2018-09-23T08:16:51.133Z,11.13
2018-09-23T08:19:18.974Z,9.27
2018-09-23T08:21:46.716Z,8.63
2018-09-23T08:24:14.490Z,9.97
2018-09-23T08:26:42.323Z,8.20
2018-09-23T08:29:10.086Z,12.30
2018-09-23T08:31:37.939Z,14.57
2018-09-23T08:34:05.702Z,8.70
2018-09-23T08:36:33.480Z,8.67
2018-09-23T08:39:01.294Z,8.60
2018-09-23T08:41:29.193Z,7.20
2018-09-23T08:43:56.945Z,9.07
2018-09-23T08:46:25.006Z,7.73
2018-09-23T08:48:52.834Z,8.80
2018-09-23T08:51:20.711Z,9.47
2018-09-23T08:53:48.483Z,10.53
2018-09-23T08:56:16.246Z,8.53
2018-09-23T08:58:44.028Z,10.03
2018-09-23T09:01:11.777Z,8.47
2018-09-23T09:03:39.646Z,11.53
2018-09-23T09:06:07.446Z,8.27
2018-09-23T09:08:35.280Z,13.20
2018-09-23T09:11:03.065Z,10.27
2018-09-23T09:13:30.824Z,8.33
2018-09-23T09:15:58.631Z,9.03
2018-09-23T09:18:26.505Z,11.80
2018-09-23T09:20:54.233Z,9.13
2018-09-23T09:23:21.990Z,9.20
2018-09-23T09:25:49.844Z,11.80
2018-09-23T09:28:17.590Z,13.80
2018-09-23T09:30:45.358Z,10.80
2018-09-23T09:33:13.166Z,10.47
2018-09-23T09:35:40.937Z,9.97
2018-09-23T09:38:08.710Z,8.47
2018-09-23T09:40:36.469Z,10.17
2018-09-23T09:43:04.250Z,13.57
2018-09-23T09:45:32.010Z,11.00
2018-09-23T09:47:59.858Z,8.33
2018-09-23T09:50:27.615Z,11.03
2018-09-23T09:52:55.397Z,9.90
2018-09-23T09:55:23.299Z,11.33
2018-09-23T09:57:51.054Z,10.93
2018-09-23T10:00:23.972Z,13.50
2018-09-23T10:02:51.774Z,11.93
2018-09-23T10:05:19.563Z,13.80
2018-09-23T10:07:47.326Z,13.50
2018-09-23T10:10:15.193Z,13.20
2018-09-23T10:12:42.954Z,12.00
2018-09-23T10:15:10.792Z,8.67
2018-09-23T10:17:38.597Z,10.77
2018-09-23T10:20:06.483Z,11.70
2018-09-23T10:22:34.298Z,12.43
2018-09-23T10:25:02.069Z,13.73
2018-09-23T10:27:29.936Z,11.17
2018-09-23T10:29:57.711Z,12.00
2018-09-23T10:32:25.489Z,10.60
2018-09-23T10:34:53.847Z,14.00
2018-09-23T10:37:21.626Z,10.60
2018-09-23T10:39:49.426Z,11.63
2018-09-23T10:42:17.195Z,13.60
2018-09-23T10:44:45.022Z,20.73
2018-09-23T10:47:13.129Z,12.40
2018-09-23T10:49:41.327Z,11.10
2018-09-23T10:52:09.135Z,10.07
2018-09-23T10:54:36.970Z,13.97
2018-09-23T10:57:05.198Z,11.27
2018-09-23T10:59:33.096Z,15.07
2018-09-23T11:02:00.897Z,13.43
2018-09-23T11:04:28.668Z,12.57
2018-09-23T11:06:56.507Z,11.13
2018-09-23T11:09:24.274Z,11.07
2018-09-23T11:11:52.039Z,10.23
2018-09-23T11:14:19.851Z,11.30
2018-09-23T11:16:47.634Z,13.27
2018-09-23T11:19:15.431Z,13.60
2018-09-23T11:21:43.190Z,12.33
2018-09-23T11:24:11.115Z,12.33
2018-09-23T11:26:38.872Z,11.97
2018-09-23T11:29:06.758Z,9.23
2018-09-23T11:31:34.536Z,9.70
2018-09-23T11:34:02.371Z,11.03
2018-09-23T11:36:30.154Z,13.50
2018-09-23T11:38:57.926Z,14.87
2018-09-23T11:41:25.864Z,9.77
2018-09-23T11:43:53.679Z,10.00
2018-09-23T11:46:21.570Z,12.03
2018-09-23T11:48:49.807Z,9.40
2018-09-23T11:51:17.606Z,10.50
2018-09-23T11:53:45.492Z,12.57
2018-09-23T11:56:13.265Z,13.37
2018-09-23T11:58:41.097Z,11.07
2018-09-23T12:01:08.948Z,10.87
2018-09-23T12:03:36.736Z,10.30
2018-09-23T12:06:04.510Z,9.63
2018-09-23T12:08:32.346Z,9.20
2018-09-23T12:11:00.186Z,11.47
2018-09-23T12:13:28.071Z,12.87
2018-09-23T12:15:55.911Z,9.13
2018-09-23T12:18:23.727Z,9.40
2018-09-23T12:20:51.529Z,12.90
2018-09-23T12:23:19.586Z,12.83
2018-09-23T12:25:47.457Z,10.93
2018-09-23T12:28:15.243Z,19.60
2018-09-23T12:30:43.091Z,9.37
2018-09-23T12:33:10.911Z,11.80
2018-09-23T12:35:38.739Z,9.57
2018-09-23T12:38:06.534Z,10.07
2018-09-23T12:40:34.303Z,10.37
2018-09-23T12:43:02.122Z,14.30
2018-09-23T12:45:29.919Z,13.17
2018-09-23T12:47:57.775Z,14.90
2018-09-23T12:50:25.551Z,9.70
2018-09-23T12:52:53.374Z,7.87
2018-09-23T12:55:21.257Z,9.03
2018-09-23T12:57:49.039Z,10.93
2018-09-23T13:00:16.839Z,9.67
2018-09-23T13:02:44.595Z,11.57
2018-09-23T13:05:12.447Z,11.13
2018-09-23T13:07:40.225Z,9.13
2018-09-23T13:10:08.107Z,9.03
2018-09-23T13:12:36.035Z,11.10
2018-09-23T13:15:03.918Z,13.43
2018-09-23T13:17:31.679Z,10.20
2018-09-23T13:19:59.494Z,10.70
2018-09-23T13:22:27.271Z,9.57
2018-09-23T13:24:55.085Z,10.37
2018-09-23T13:27:22.858Z,8.27
2018-09-23T13:29:50.639Z,9.43
2018-09-23T13:32:18.483Z,10.60
2018-09-23T13:34:46.274Z,10.00
2018-09-23T13:37:14.122Z,10.80
2018-09-23T13:39:41.934Z,10.17
2018-09-23T13:42:09.736Z,13.17
2018-09-23T13:44:37.532Z,12.17
2018-09-23T13:47:05.342Z,8.80
2018-09-23T13:49:33.127Z,9.27
2018-09-23T13:52:00.919Z,12.40
2018-09-23T13:54:28.864Z,15.83
2018-09-23T13:56:56.693Z,12.17
2018-09-23T13:59:24.485Z,11.93
2018-09-23T14:01:52.273Z,9.63
2018-09-23T14:04:20.033Z,9.77
2018-09-23T14:06:47.814Z,9.77
2018-09-23T14:09:15.673Z,12.90
2018-09-23T14:11:43.531Z,10.27
2018-09-23T14:14:11.368Z,12.33
2018-09-23T14:16:39.226Z,11.30
2018-09-23T14:19:07.018Z,8.87
2018-09-23T14:21:34.782Z,10.07
2018-09-23T14:24:02.565Z,10.53
2018-09-23T14:26:30.386Z,11.40
2018-09-23T14:28:58.201Z,9.43
2018-09-23T14:31:25.959Z,12.27
2018-09-23T14:33:53.743Z,11.33
2018-09-23T14:36:21.629Z,12.60
2018-09-23T14:38:49.523Z,12.27
2018-09-23T14:41:17.305Z,15.10
2018-09-23T14:43:45.083Z,12.50
2018-09-23T14:46:12.871Z,10.87
2018-09-23T14:48:40.650Z,13.20
2018-09-23T14:51:08.487Z,11.03
2018-09-23T14:53:36.294Z,16.97
2018-09-23T14:56:04.144Z,11.07
2018-09-23T14:58:31.907Z,11.30
2018-09-23T15:00:59.760Z,11.37
2018-09-23T15:03:27.526Z,11.70
2018-09-23T15:05:55.328Z,13.43
2018-09-23T15:08:23.120Z,16.20
2018-09-23T15:10:50.914Z,14.30
2018-09-23T15:13:18.699Z,21.27
2018-09-23T15:15:46.467Z,11.27
2018-09-23T15:18:14.309Z,13.00
2018-09-23T15:20:42.074Z,11.80
2018-09-23T15:23:09.959Z,14.60
2018-09-23T15:25:37.729Z,11.57
2018-09-23T15:28:05.551Z,17.60
2018-09-23T15:30:33.347Z,13.77
2018-09-23T15:33:01.117Z,19.83
2018-09-23T15:35:28.923Z,14.97
2018-09-23T15:38:06.057Z,20.63
2018-09-23T15:40:33.944Z,15.90
2018-09-23T15:43:01.735Z,13.13
2018-09-23T15:45:29.670Z,15.10
2018-09-23T15:47:57.851Z,11.67
2018-09-23T15:50:25.633Z,13.57
2018-09-23T15:52:53.527Z,12.60
2018-09-23T15:55:21.298Z,16.97
2018-09-23T15:57:49.119Z,19.20
2018-09-23T16:00:17.030Z,14.83
2018-09-23T16:02:44.859Z,20.90
2018-09-23T16:05:14.076Z,21.93
2018-09-23T16:07:41.930Z,18.67
2018-09-23T16:10:09.917Z,18.13
2018-09-23T16:12:37.798Z,23.37
2018-09-23T16:15:05.712Z,16.63
2018-09-23T16:17:33.489Z,19.87
2018-09-23T16:20:01.307Z,16.77
2018-09-23T16:22:29.101Z,38.53
2018-09-23T16:24:56.912Z,95.27
2018-09-23T16:27:24.707Z,30.97
2018-09-23T16:29:52.562Z,25.47
2018-09-23T16:32:20.397Z,25.80
2018-09-23T16:34:48.182Z,23.83
2018-09-23T16:37:16.063Z,19.93
2018-09-23T16:39:43.839Z,18.50
2018-09-23T16:42:11.770Z,20.23
2018-09-23T16:44:39.639Z,31.80
2018-09-23T16:47:07.608Z,21.80
2018-09-23T16:49:35.437Z,29.77
2018-09-23T16:52:03.226Z,38.37
2018-09-23T16:54:31.122Z,42.27
2018-09-23T16:56:58.911Z,41.33
2018-09-23T16:59:26.755Z,26.63
2018-09-23T17:01:54.574Z,35.20
2018-09-23T17:04:22.379Z,41.93
2018-09-23T17:06:50.166Z,34.03
2018-09-23T17:09:17.930Z,22.77
2018-09-23T17:11:45.729Z,22.80
2018-09-23T17:14:13.495Z,23.67
2018-09-23T17:16:41.298Z,22.30
2018-09-23T17:19:09.717Z,22.37
2018-09-23T17:21:37.613Z,19.80
2018-09-23T17:24:05.402Z,27.43
2018-09-23T17:26:33.207Z,25.50
2018-09-23T17:29:01.091Z,24.27
2018-09-23T17:31:28.935Z,26.83
2018-09-23T17:33:56.734Z,25.33
2018-09-23T17:36:24.565Z,24.47
2018-09-23T17:38:52.378Z,30.83
2018-09-23T17:41:20.333Z,27.57
2018-09-23T17:43:48.186Z,23.07
2018-09-23T17:46:15.992Z,73.77
2018-09-23T17:48:43.913Z,51.53
2018-09-23T17:51:11.683Z,44.27
2018-09-23T17:53:39.583Z,44.00
2018-09-23T17:56:08.423Z,42.90
2018-09-23T17:58:36.231Z,54.50
2018-09-23T18:01:04.114Z,45.03
2018-09-23T18:03:31.949Z,28.10
2018-09-23T18:05:59.807Z,38.27
2018-09-23T18:08:27.641Z,24.97
2018-09-23T18:10:55.421Z,33.37
2018-09-23T18:13:23.281Z,176.43
2018-09-23T18:15:51.063Z,228.50
2018-09-23T18:18:18.904Z,165.70
2018-09-23T18:20:46.691Z,113.23
2018-09-23T18:23:14.481Z,172.03
2018-09-23T18:25:42.298Z,247.77
2018-09-23T18:28:10.094Z,236.27
2018-09-23T18:30:37.898Z,167.13
2018-09-23T18:33:05.783Z,84.50
2018-09-23T18:35:33.594Z,72.80
2018-09-23T18:38:01.402Z,156.93
2018-09-23T18:40:29.203Z,348.87
2018-09-23T18:42:56.980Z,119.90
2018-09-23T18:45:24.923Z,138.87
2018-09-23T18:47:52.704Z,90.87
2018-09-23T18:50:20.511Z,170.60
2018-09-23T18:52:52.565Z,156.60
2018-09-23T18:55:25.555Z,129.50
2018-09-23T18:57:54.217Z,124.93
2018-09-23T19:00:22.050Z,163.20
2018-09-23T19:02:49.888Z,193.73
2018-09-23T19:05:17.779Z,169.20
2018-09-23T19:07:45.639Z,94.10
2018-09-23T19:10:13.401Z,79.83
2018-09-23T19:12:41.270Z,80.23
2018-09-23T19:15:09.078Z,92.20
2018-09-23T19:17:36.863Z,72.67
2018-09-23T19:20:10.021Z,74.00
2018-09-23T19:22:43.089Z,71.80
2018-09-23T19:25:10.887Z,64.67
2018-09-23T19:27:38.667Z,71.07
2018-09-23T19:30:06.634Z,73.20
2018-09-23T19:32:34.445Z,39.97
2018-09-23T19:35:02.239Z,59.77
2018-09-23T19:37:30.070Z,61.60
2018-09-23T19:39:57.836Z,53.77
2018-09-23T19:42:25.619Z,58.67
2018-09-23T19:44:53.377Z,58.97
2018-09-23T19:47:21.187Z,49.60
2018-09-23T19:49:48.968Z,56.10
2018-09-23T19:52:16.841Z,49.27
2018-09-23T19:54:44.637Z,50.07
2018-09-23T19:57:12.402Z,55.50
2018-09-23T19:59:40.178Z,58.83
2018-09-23T20:02:07.943Z,39.50
2018-09-23T20:04:35.784Z,40.10
2018-09-23T20:07:03.627Z,47.87
2018-09-23T20:09:31.446Z,36.57
2018-09-23T20:11:59.233Z,41.33
2018-09-23T20:14:27.098Z,34.43
2018-09-23T20:16:54.853Z,34.83
2018-09-23T20:19:22.661Z,35.10
2018-09-23T20:21:50.451Z,34.27
2018-09-23T20:24:18.203Z,40.00
2018-09-23T20:26:46.066Z,30.90
2018-09-23T20:29:13.850Z,29.40
2018-09-23T20:31:41.683Z,27.90
2018-09-23T20:34:09.507Z,27.87
2018-09-23T20:36:37.271Z,23.97
2018-09-23T20:39:06.678Z,22.27
2018-09-23T20:41:34.474Z,16.43
2018-09-23T20:44:02.266Z,20.13
2018-09-23T20:46:30.046Z,17.83
2018-09-23T20:48:57.847Z,31.20
2018-09-23T20:51:25.598Z,27.47
2018-09-23T20:53:53.446Z,35.33
2018-09-23T20:56:21.235Z,28.47
2018-09-23T20:58:49.055Z,31.83
2018-09-23T21:01:16.839Z,40.73
2018-09-23T21:03:44.614Z,31.13
2018-09-23T21:06:12.463Z,25.10
2018-09-23T21:08:40.230Z,26.87
2018-09-23T21:11:07.986Z,22.37
2018-09-23T21:13:35.758Z,19.30
2018-09-23T21:16:03.555Z,19.53
2018-09-23T21:18:31.427Z,17.63
2018-09-23T21:20:59.261Z,20.87
2018-09-23T21:23:27.135Z,19.13
2018-09-23T21:25:54.903Z,18.43
2018-09-23T21:28:22.709Z,20.97
2018-09-23T21:30:50.495Z,18.73
2018-09-23T21:33:18.351Z,25.43
2018-09-23T21:35:46.232Z,23.67
2018-09-23T21:38:13.977Z,24.73
2018-09-23T21:40:41.885Z,23.13
2018-09-23T21:43:09.650Z,21.63
2018-09-23T21:45:37.613Z,18.60
2018-09-23T21:48:05.451Z,22.00
2018-09-23T21:50:33.266Z,18.77
2018-09-23T21:53:01.086Z,22.93
2018-09-23T21:55:28.854Z,20.87
2018-09-23T21:57:56.637Z,24.77
2018-09-23T22:00:28.601Z,18.07
2018-09-23T22:02:56.409Z,27.90
2018-09-23T22:05:24.170Z,20.97
2018-09-23T22:07:52.025Z,20.53
2018-09-23T22:10:19.789Z,21.80
2018-09-23T22:12:47.554Z,22.23
2018-09-23T22:15:21.579Z,19.07
2018-09-23T22:17:49.342Z,25.20
2018-09-23T22:20:17.141Z,22.50
2018-09-23T22:22:45.250Z,30.17
2018-09-23T22:25:13.030Z,24.03
2018-09-23T22:27:41.016Z,31.00
2018-09-23T22:30:08.903Z,21.57
2018-09-23T22:32:36.944Z,30.63
2018-09-23T22:35:05.363Z,24.53
2018-09-23T22:37:33.186Z,24.73
2018-09-23T22:40:00.990Z,27.03
2018-09-23T22:42:28.830Z,22.97
2018-09-23T22:44:56.617Z,22.00
2018-09-23T22:47:24.467Z,29.23
2018-09-23T22:49:52.265Z,25.50
2018-09-23T22:52:20.090Z,26.83
2018-09-23T22:54:47.922Z,26.57
2018-09-23T22:57:15.954Z,23.97
2018-09-23T22:59:43.743Z,26.53
2018-09-23T23:02:11.559Z,21.17
2018-09-23T23:04:39.377Z,28.10
2018-09-23T23:07:07.133Z,22.10
2018-09-23T23:09:35.136Z,24.50
2018-09-23T23:12:03.136Z,29.07
2018-09-23T23:17:05.090Z,23.57
2018-09-23T23:19:32.984Z,22.63
2018-09-23T23:22:00.815Z,26.73
2018-09-23T23:24:28.652Z,29.73
2018-09-23T23:26:56.496Z,22.67
2018-09-23T23:29:24.261Z,25.00
2018-09-23T23:31:52.055Z,24.00
2018-09-23T23:34:19.827Z,26.90
2018-09-23T23:36:47.669Z,26.17
2018-09-23T23:39:15.443Z,29.37
2018-09-23T23:41:43.333Z,26.80
2018-09-23T23:44:11.093Z,24.07
2018-09-23T23:46:39.017Z,28.63
2018-09-23T23:49:07.276Z,28.77
2018-09-23T23:51:35.041Z,28.60
2018-09-23T23:54:02.823Z,27.80
2018-09-23T23:56:30.685Z,23.40
2018-09-23T23:58:58.590Z,22.97
